Aviation Digital Data Service (ADDS)

Output produced by METARs form (1038 UTC 24 June 2018)
found at http://aviationweather.gov/adds/metars/
 
METAR text: KPRB 240953Z AUTO 00000KT 10SM CLR 14/12 A2983 RMK AO2 SLP092 T01440117 $
Conditions at: KPRB (PASO ROBLES , CA, US) observed 0953 UTC 24 June 2018
Temperature: 14.4°C (58°F)
Dewpoint: 11.7°C (53°F) [RH = 84%]
Pressure (altimeter): 29.83 inches Hg (1010.2 mb)
[Sea-level pressure: 1009.2 mb]
Winds: calm
Visibility: 10 or more miles (16+ km)
Ceiling: at least 12,000 feet AGL
Clouds: sky clear below 12,000 feet AGL
Weather:
SOME DATA ABOVE MAY BE INACCURATE!!!
"$" is an indication the sensor requires maintenance